Time;durP1;ratioP1;P1;durP2;ratioP2;P2;SDS_P1;SDS_P2;PMS_P1;PMS_P2;Temp;Humidity;BMP_temperature;BMP_pressure;BME280_temperature;BME280_humidity;BME280_pressure;Samples;Min_cycle;Max_cycle;Signal;HPM_P1;HPM_P2
2024/01/22 00:01:42;;;;;;;15.43;13.27;;;0.70;99.90;;;;;;5034460;28;20218;-74
2024/01/22 00:04:08;;;;;;;17.37;13.90;;;0.70;99.90;;;;;;5034502;28;20178;-74
2024/01/22 00:06:37;;;;;;;17.10;13.23;;;0.80;99.90;;;;;;5034084;28;20569;-74
2024/01/22 00:09:04;;;;;;;16.57;13.10;;;0.80;99.90;;;;;;5034013;28;20194;-74
2024/01/22 00:11:30;;;;;;;16.33;13.07;;;0.80;99.90;;;;;;5034123;28;20190;-74
2024/01/22 00:13:56;;;;;;;17.43;13.33;;;0.80;99.90;;;;;;5034484;28;20178;-74
2024/01/22 00:16:22;;;;;;;16.80;13.03;;;0.90;99.90;;;;;;5036280;28;20202;-75
2024/01/22 00:18:48;;;;;;;18.77;13.77;;;0.90;99.90;;;;;;5046253;28;20245;-75
2024/01/22 00:21:14;;;;;;;19.23;14.07;;;0.90;99.90;;;;;;5043778;28;20171;-75
2024/01/22 00:23:39;;;;;;;18.23;13.83;;;0.80;99.90;;;;;;5040920;28;20181;-76
2024/01/22 00:26:05;;;;;;;19.07;13.77;;;0.90;99.90;;;;;;5038409;28;20207;-75
2024/01/22 00:28:30;;;;;;;15.67;13.93;;;0.90;99.90;;;;;;5037885;28;20183;-75
2024/01/22 00:30:56;;;;;;;14.93;12.93;;;0.80;99.90;;;;;;5036929;28;20174;-74
2024/01/22 00:33:21;;;;;;;16.87;12.83;;;0.80;99.90;;;;;;5034089;28;20175;-74
2024/01/22 00:35:47;;;;;;;15.17;12.33;;;0.80;99.90;;;;;;5035936;28;20265;-75
2024/01/22 00:38:12;;;;;;;15.17;12.23;;;0.90;99.90;;;;;;5037443;28;20293;-77
2024/01/22 00:40:38;;;;;;;15.50;12.67;;;0.90;99.90;;;;;;5037178;28;20218;-77
2024/01/22 00:43:04;;;;;;;16.20;12.90;;;0.90;99.90;;;;;;5038190;28;20233;-77
2024/01/22 00:45:30;;;;;;;15.83;12.20;;;0.90;99.90;;;;;;5037295;28;20201;-77
2024/01/22 00:47:56;;;;;;;17.23;12.97;;;0.90;99.90;;;;;;5038475;28;20202;-76
2024/01/22 00:50:21;;;;;;;15.73;12.20;;;0.90;99.90;;;;;;5036679;28;20210;-76
2024/01/22 00:52:47;;;;;;;16.10;12.03;;;1.00;99.90;;;;;;5036466;28;20190;-76
2024/01/22 00:55:12;;;;;;;14.43;12.63;;;0.90;99.90;;;;;;5036305;28;20191;-75
2024/01/22 00:57:38;;;;;;;16.57;12.90;;;0.90;99.90;;;;;;5034169;28;20233;-74
2024/01/22 01:00:06;;;;;;;17.27;13.83;;;0.90;99.90;;;;;;5034624;28;20167;-74
2024/01/22 01:02:31;;;;;;;15.97;13.10;;;0.80;99.90;;;;;;5033996;28;20590;-74
2024/01/22 01:04:57;;;;;;;17.47;12.13;;;0.80;99.90;;;;;;5033499;28;20714;-74
2024/01/22 01:07:23;;;;;;;17.37;12.60;;;0.80;99.90;;;;;;5033256;28;20199;-74
2024/01/22 01:09:49;;;;;;;16.83;12.73;;;0.80;99.90;;;;;;5033110;28;20179;-74
2024/01/22 01:12:15;;;;;;;14.00;11.87;;;0.80;99.90;;;;;;5032946;28;20186;-74
2024/01/22 01:14:40;;;;;;;15.87;12.30;;;0.90;99.90;;;;;;5033247;28;20171;-74
2024/01/22 01:17:06;;;;;;;16.03;12.80;;;0.90;99.90;;;;;;5033864;28;20191;-74
2024/01/22 01:19:31;;;;;;;14.57;12.87;;;0.90;99.90;;;;;;5033308;28;20215;-74
2024/01/22 01:21:57;;;;;;;16.30;12.23;;;0.90;99.90;;;;;;5034038;28;20179;-74
2024/01/22 01:24:22;;;;;;;14.03;11.27;;;0.80;99.90;;;;;;5032841;28;20232;-74
2024/01/22 01:26:48;;;;;;;13.40;10.47;;;0.90;99.90;;;;;;5032970;28;20715;-74
2024/01/22 01:29:14;;;;;;;15.90;11.90;;;0.90;99.90;;;;;;5034179;28;20177;-74
2024/01/22 01:31:39;;;;;;;12.30;11.00;;;0.90;99.90;;;;;;5033842;28;20175;-74
2024/01/22 01:34:05;;;;;;;12.83;11.00;;;1.00;99.90;;;;;;5032667;28;20183;-74
2024/01/22 01:36:31;;;;;;;16.50;11.30;;;1.00;99.90;;;;;;5032499;28;20692;-74
2024/01/22 01:38:56;;;;;;;13.10;10.73;;;1.00;99.90;;;;;;5032804;28;20206;-74
2024/01/22 01:41:22;;;;;;;13.27;10.60;;;1.00;99.90;;;;;;5033349;28;20181;-74
2024/01/22 01:43:47;;;;;;;13.60;10.43;;;1.00;99.90;;;;;;5032452;28;20274;-74
2024/01/22 01:46:13;;;;;;;11.67;10.27;;;1.10;99.90;;;;;;5033588;28;20191;-74
2024/01/22 01:48:39;;;;;;;11.03;9.83;;;1.10;99.90;;;;;;5033201;28;20179;-74
2024/01/22 01:51:05;;;;;;;13.07;9.43;;;1.20;99.90;;;;;;5032842;28;20225;-74
2024/01/22 01:53:33;;;;;;;11.90;10.33;;;1.20;99.90;;;;;;5033586;28;20265;-74
2024/01/22 01:55:59;;;;;;;13.97;11.07;;;1.20;99.90;;;;;;5032247;28;20183;-74
2024/01/22 01:58:25;;;;;;;13.13;10.97;;;1.20;99.90;;;;;;5032217;28;20205;-74
2024/01/22 02:17:03;;;;;;;9.80;7.67;;;1.30;99.90;;;;;;5489784;22;20236;-75
2024/01/22 02:19:28;;;;;;;8.17;7.07;;;1.40;99.90;;;;;;4993213;28;20223;-76
2024/01/22 02:21:54;;;;;;;8.93;7.60;;;1.40;99.90;;;;;;4993704;28;20176;-76
2024/01/22 02:24:19;;;;;;;10.33;7.47;;;1.50;99.90;;;;;;4992757;28;20180;-76
2024/01/22 02:26:45;;;;;;;8.63;7.10;;;1.50;99.90;;;;;;4993764;28;20219;-75
2024/01/22 02:29:10;;;;;;;8.13;7.13;;;1.60;99.90;;;;;;4994524;28;20643;-75
2024/01/22 02:31:36;;;;;;;7.63;6.87;;;1.60;99.90;;;;;;4996956;28;20176;-75
2024/01/22 02:34:01;;;;;;;8.97;6.10;;;1.60;99.90;;;;;;4997622;28;20180;-75
2024/01/22 02:36:27;;;;;;;8.57;6.20;;;1.60;99.90;;;;;;4996798;28;20200;-75
2024/01/22 02:38:53;;;;;;;7.97;5.93;;;1.70;99.90;;;;;;4996484;28;20215;-75
2024/01/22 02:41:18;;;;;;;7.70;6.10;;;1.60;99.90;;;;;;4997418;28;20263;-75
2024/01/22 02:43:44;;;;;;;8.83;5.47;;;1.60;99.90;;;;;;4996626;28;20319;-75
2024/01/22 02:46:09;;;;;;;6.93;5.60;;;1.70;99.90;;;;;;4996720;28;20202;-75
2024/01/22 02:48:35;;;;;;;6.00;5.37;;;1.70;99.90;;;;;;4996544;28;20248;-75
2024/01/22 02:51:01;;;;;;;7.10;5.70;;;1.60;99.90;;;;;;4996898;28;20187;-75
2024/01/22 02:53:27;;;;;;;6.97;5.30;;;1.60;99.90;;;;;;4997643;28;20179;-75
2024/01/22 02:55:52;;;;;;;6.53;5.50;;;1.60;99.90;;;;;;4997737;28;20222;-75
2024/01/22 02:58:18;;;;;;;7.57;6.30;;;1.50;99.90;;;;;;4996397;28;20250;-75
2024/01/22 03:00:43;;;;;;;9.73;7.47;;;1.50;99.90;;;;;;4996421;28;20246;-75
2024/01/22 03:03:09;;;;;;;10.63;8.13;;;1.40;99.90;;;;;;4996660;28;20234;-75
2024/01/22 03:05:34;;;;;;;12.73;9.67;;;1.30;99.90;;;;;;4997358;28;20187;-75
2024/01/22 03:08:00;;;;;;;12.23;9.67;;;1.30;99.90;;;;;;4996660;28;20191;-75
2024/01/22 03:10:26;;;;;;;10.53;8.00;;;1.20;99.90;;;;;;4996255;28;20215;-75
2024/01/22 03:12:52;;;;;;;11.37;7.67;;;1.20;99.90;;;;;;4997198;28;20203;-75
2024/01/22 03:15:17;;;;;;;9.70;7.50;;;1.10;99.90;;;;;;4996327;28;20203;-75
2024/01/22 03:17:43;;;;;;;7.07;6.37;;;1.20;99.90;;;;;;4995895;28;20226;-74
2024/01/22 03:20:10;;;;;;;7.47;6.00;;;1.10;99.90;;;;;;4995684;28;20190;-73
2024/01/22 03:22:36;;;;;;;6.93;4.60;;;1.10;99.90;;;;;;4995976;28;20184;-73
2024/01/22 03:25:02;;;;;;;9.10;5.30;;;1.10;99.90;;;;;;4996978;28;20199;-73
2024/01/22 03:27:29;;;;;;;7.77;4.87;;;1.10;99.90;;;;;;4995601;28;20207;-73
2024/01/22 03:29:54;;;;;;;8.83;5.20;;;1.10;99.90;;;;;;4995674;28;20176;-73
2024/01/22 03:32:21;;;;;;;9.63;5.33;;;1.10;99.90;;;;;;4995537;28;20639;-73
2024/01/22 03:34:46;;;;;;;6.07;4.10;;;1.10;99.90;;;;;;4995645;28;20203;-73
2024/01/22 03:37:12;;;;;;;5.60;3.90;;;1.20;99.90;;;;;;4996201;28;20297;-73
2024/01/22 03:39:37;;;;;;;6.20;3.90;;;1.30;99.90;;;;;;4995682;28;20204;-73
2024/01/22 03:45:25;;;;;;;5.77;3.80;;;1.30;99.90;;;;;;4996519;28;20191;-73
2024/01/22 03:47:51;;;;;;;4.70;3.97;;;1.30;99.90;;;;;;4996412;28;20215;-73
2024/01/22 03:50:16;;;;;;;4.53;3.87;;;1.30;99.90;;;;;;4995569;28;20188;-73
2024/01/22 03:52:42;;;;;;;7.47;3.90;;;1.30;99.90;;;;;;4995200;28;20184;-73
2024/01/22 03:55:10;;;;;;;5.63;3.43;;;1.30;99.90;;;;;;4995996;28;20195;-73
2024/01/22 03:57:36;;;;;;;4.67;3.80;;;1.30;99.90;;;;;;4995243;28;20258;-73
2024/01/22 04:00:03;;;;;;;4.37;3.80;;;1.30;99.90;;;;;;4995179;28;20200;-73
2024/01/22 04:02:33;;;;;;;7.30;3.83;;;1.30;99.90;;;;;;4996609;28;20183;-73
2024/01/22 04:04:59;;;;;;;3.67;3.33;;;1.30;99.90;;;;;;4996080;28;20203;-73
2024/01/22 04:07:25;;;;;;;6.07;3.70;;;1.30;99.90;;;;;;4995118;28;20569;-73
2024/01/22 04:09:51;;;;;;;4.97;3.67;;;1.20;99.90;;;;;;4994896;28;20177;-73
2024/01/22 04:12:17;;;;;;;4.60;3.60;;;1.20;99.90;;;;;;4995125;28;20181;-73
2024/01/22 04:14:43;;;;;;;4.93;3.23;;;1.20;99.90;;;;;;4996613;28;20179;-73
2024/01/22 04:17:10;;;;;;;4.97;3.30;;;1.20;99.90;;;;;;4995687;28;20216;-73
2024/01/22 04:19:35;;;;;;;7.73;5.50;;;1.20;99.90;;;;;;4994563;28;20585;-73
2024/01/22 04:22:03;;;;;;;6.13;4.43;;;1.30;99.90;;;;;;4995842;28;20176;-73
2024/01/22 04:24:28;;;;;;;6.13;4.37;;;1.30;99.90;;;;;;4994885;28;20198;-73
2024/01/22 04:26:55;;;;;;;4.90;4.30;;;1.30;99.90;;;;;;4994517;28;20570;-73
2024/01/22 04:29:21;;;;;;;6.83;4.10;;;1.30;99.90;;;;;;4994630;28;20230;-73
2024/01/22 04:31:47;;;;;;;6.30;5.00;;;1.30;99.90;;;;;;4994742;28;20228;-73
2024/01/22 04:34:13;;;;;;;5.37;4.50;;;1.40;99.90;;;;;;4994748;28;20208;-73
2024/01/22 04:36:39;;;;;;;5.30;4.23;;;1.40;99.90;;;;;;4994721;28;20203;-73
2024/01/22 04:39:05;;;;;;;5.87;4.00;;;1.40;99.90;;;;;;4994203;28;20220;-73
2024/01/22 04:41:31;;;;;;;4.00;3.60;;;1.30;99.90;;;;;;4994583;28;20212;-73
2024/01/22 04:43:57;;;;;;;3.97;3.47;;;1.30;99.90;;;;;;4994237;28;20180;-73
2024/01/22 04:46:24;;;;;;;3.80;3.40;;;1.30;99.90;;;;;;4994979;28;20204;-73
2024/01/22 04:48:50;;;;;;;6.53;3.77;;;1.30;99.90;;;;;;4994136;28;20184;-73
2024/01/22 04:51:16;;;;;;;4.90;3.47;;;1.30;99.90;;;;;;4994116;28;20191;-73
2024/01/22 04:53:42;;;;;;;4.10;3.70;;;1.30;99.90;;;;;;4993328;28;20243;-73
2024/01/22 04:56:08;;;;;;;7.27;4.00;;;1.30;99.90;;;;;;4993974;28;20200;-73
2024/01/22 04:58:34;;;;;;;3.73;2.83;;;1.40;99.90;;;;;;4993900;28;20299;-73
2024/01/22 05:01:00;;;;;;;5.90;3.00;;;1.40;99.90;;;;;;4994248;28;20308;-73
2024/01/22 05:03:27;;;;;;;3.93;2.40;;;1.50;99.90;;;;;;4994074;28;20180;-73
2024/01/22 05:05:53;;;;;;;3.87;2.80;;;1.50;99.90;;;;;;4993964;28;20196;-74
2024/01/22 05:08:19;;;;;;;4.17;2.70;;;1.60;99.90;;;;;;4995110;28;20184;-76
2024/01/22 05:10:45;;;;;;;2.30;2.07;;;1.70;99.90;;;;;;4996147;28;20226;-76
2024/01/22 05:13:13;;;;;;;3.10;2.40;;;1.80;99.90;;;;;;4994561;28;20184;-76
2024/01/22 05:15:40;;;;;;;2.87;2.60;;;1.90;99.90;;;;;;4994499;28;20188;-75
2024/01/22 05:18:07;;;;;;;3.03;2.80;;;2.10;99.90;;;;;;4994485;28;20286;-75
2024/01/22 05:20:32;;;;;;;3.47;2.70;;;2.20;99.90;;;;;;4995942;28;20172;-75
2024/01/22 05:22:58;;;;;;;3.57;2.83;;;2.20;99.90;;;;;;4994697;28;20207;-76
2024/01/22 05:25:24;;;;;;;5.17;3.10;;;2.30;99.90;;;;;;4994271;28;20184;-76
2024/01/22 05:27:50;;;;;;;5.53;3.20;;;2.40;99.90;;;;;;4994818;28;20195;-76
2024/01/22 05:30:17;;;;;;;3.93;3.17;;;2.40;99.90;;;;;;4994661;28;20191;-76
2024/01/22 05:32:43;;;;;;;3.67;2.77;;;2.40;99.90;;;;;;4994541;28;20215;-76
2024/01/22 05:35:09;;;;;;;3.13;2.60;;;2.40;99.90;;;;;;4995512;28;20172;-76
2024/01/22 05:37:35;;;;;;;4.00;2.50;;;2.50;99.90;;;;;;4994292;28;20252;-76
2024/01/22 05:40:01;;;;;;;4.17;2.60;;;2.40;99.90;;;;;;4995323;28;20203;-76
2024/01/22 05:42:27;;;;;;;3.43;2.70;;;2.50;99.90;;;;;;4994584;28;20211;-76
2024/01/22 05:44:53;;;;;;;2.50;2.03;;;2.50;99.90;;;;;;4995329;28;20179;-76
2024/01/22 05:47:20;;;;;;;3.10;2.80;;;2.60;99.90;;;;;;4995066;28;20200;-75
2024/01/22 05:49:45;;;;;;;3.03;2.50;;;2.60;99.90;;;;;;4994502;28;20191;-75
2024/01/22 05:52:11;;;;;;;3.27;2.47;;;2.60;99.90;;;;;;4994485;28;20180;-75
2024/01/22 05:54:38;;;;;;;3.50;2.70;;;2.50;99.90;;;;;;4995454;28;20184;-75
2024/01/22 05:57:04;;;;;;;5.37;2.40;;;2.60;99.90;;;;;;4994156;28;20208;-75
2024/01/22 05:59:30;;;;;;;3.23;2.60;;;2.60;99.90;;;;;;4994484;28;20211;-76
2024/01/22 06:01:56;;;;;;;2.93;2.50;;;2.70;99.90;;;;;;4995098;28;20172;-76
2024/01/22 06:04:24;;;;;;;3.50;2.67;;;2.60;99.90;;;;;;4993422;28;20292;-75
2024/01/22 06:06:49;;;;;;;4.20;2.53;;;2.70;99.90;;;;;;4993578;28;20196;-75
2024/01/22 06:09:16;;;;;;;3.00;2.10;;;2.70;99.90;;;;;;4995608;28;20187;-75
2024/01/22 06:11:43;;;;;;;2.50;2.20;;;2.70;99.90;;;;;;5012991;28;20242;-75
2024/01/22 06:14:09;;;;;;;2.77;2.17;;;2.80;99.90;;;;;;5012664;28;20187;-76
2024/01/22 06:16:35;;;;;;;2.43;2.23;;;2.80;99.90;;;;;;5012641;28;20207;-75
2024/01/22 06:19:01;;;;;;;2.40;2.20;;;2.80;99.90;;;;;;5012964;28;20202;-76
2024/01/22 06:21:27;;;;;;;5.37;2.47;;;2.80;99.90;;;;;;5013518;28;20176;-76
2024/01/22 06:23:53;;;;;;;2.30;2.10;;;2.80;99.90;;;;;;5013005;28;20210;-76
2024/01/22 06:26:21;;;;;;;2.80;2.30;;;2.80;99.90;;;;;;5014484;28;20206;-75
2024/01/22 06:28:47;;;;;;;3.93;2.20;;;2.90;99.90;;;;;;5013728;28;20183;-81
2024/01/22 06:31:14;;;;;;;2.17;2.03;;;2.80;99.90;;;;;;5014395;28;20195;-76
2024/01/22 06:33:39;;;;;;;4.13;2.10;;;2.90;99.90;;;;;;5013890;28;20183;-76
2024/01/22 06:36:06;;;;;;;2.40;2.20;;;2.90;99.90;;;;;;5013616;28;20260;-75
2024/01/22 06:38:32;;;;;;;2.37;2.13;;;2.90;99.90;;;;;;5014751;28;20569;-76
2024/01/22 06:40:58;;;;;;;2.93;2.20;;;2.90;99.90;;;;;;5014134;28;20184;-76
2024/01/22 06:43:23;;;;;;;2.80;2.40;;;2.90;99.90;;;;;;5014265;28;20190;-76
2024/01/22 06:45:49;;;;;;;2.27;2.10;;;3.00;99.90;;;;;;5014986;28;20621;-75
2024/01/22 06:48:15;;;;;;;3.80;2.37;;;3.00;99.90;;;;;;5014117;28;20545;-75
2024/01/22 06:50:41;;;;;;;2.90;2.47;;;3.00;99.90;;;;;;5014620;28;20230;-75
2024/01/22 06:53:06;;;;;;;2.27;2.07;;;3.00;99.90;;;;;;5013455;28;20187;-76
2024/01/22 06:55:32;;;;;;;3.70;2.20;;;2.90;99.90;;;;;;5013735;28;20187;-75
2024/01/22 06:58:39;;;;;;;2.40;2.20;;;2.90;99.90;;;;;;5014632;28;20702;-75
2024/01/22 07:01:05;;;;;;;2.20;2.10;;;2.80;99.90;;;;;;5013484;28;20218;-73
2024/01/22 07:03:30;;;;;;;6.50;2.07;;;2.90;99.90;;;;;;5012069;28;20183;-73
2024/01/22 07:05:56;;;;;;;3.77;2.23;;;2.90;99.90;;;;;;5011857;28;20288;-73
2024/01/22 07:08:22;;;;;;;3.57;2.30;;;2.90;99.90;;;;;;5012298;28;20215;-73
2024/01/22 07:10:48;;;;;;;3.30;2.20;;;2.90;99.90;;;;;;5012299;28;20214;-74
2024/01/22 07:13:14;;;;;;;3.20;2.30;;;2.90;99.90;;;;;;5012940;28;20190;-73
2024/01/22 07:15:40;;;;;;;2.37;2.17;;;2.90;99.90;;;;;;5012808;28;20179;-74
2024/01/22 07:18:06;;;;;;;2.00;1.80;;;2.90;99.90;;;;;;4999742;28;20212;-74
2024/01/22 07:20:32;;;;;;;2.30;1.77;;;2.90;99.90;;;;;;4996813;28;20175;-74
2024/01/22 07:22:58;;;;;;;3.73;2.23;;;2.80;99.90;;;;;;4995365;28;20176;-77
2024/01/22 07:25:24;;;;;;;2.33;2.00;;;2.80;99.90;;;;;;4997194;28;20195;-76
2024/01/22 07:27:50;;;;;;;4.30;2.67;;;2.80;99.90;;;;;;4996258;28;20196;-76
2024/01/22 07:30:16;;;;;;;2.47;1.90;;;2.80;99.90;;;;;;4997901;28;20181;-75
2024/01/22 07:32:43;;;;;;;2.03;1.90;;;2.80;99.90;;;;;;4997535;28;20702;-74
2024/01/22 07:35:13;;;;;;;2.97;2.37;;;3.00;99.90;;;;;;4996137;28;20267;-74
2024/01/22 07:37:41;;;;;;;7.27;4.63;;;3.00;99.90;;;;;;4996419;28;20223;-75
2024/01/22 07:40:09;;;;;;;5.30;3.67;;;3.10;99.90;;;;;;4995856;28;20174;-75
2024/01/22 07:42:35;;;;;;;3.07;2.20;;;3.00;99.90;;;;;;4997550;28;20184;-75
2024/01/22 07:45:01;;;;;;;5.20;4.30;;;3.10;99.90;;;;;;4996894;28;20176;-74
2024/01/22 07:47:28;;;;;;;7.27;3.30;;;3.10;99.90;;;;;;4995492;28;20691;-75
2024/01/22 07:49:54;;;;;;;3.30;2.50;;;3.10;99.90;;;;;;4997752;28;20234;-75
2024/01/22 07:52:21;;;;;;;2.47;2.23;;;3.10;99.90;;;;;;4997932;28;20180;-82
2024/01/22 07:54:47;;;;;;;2.87;2.20;;;3.10;99.90;;;;;;4995527;28;20670;-73
2024/01/22 07:57:13;;;;;;;3.07;2.23;;;3.10;99.90;;;;;;4995204;28;20204;-74
2024/01/22 07:59:38;;;;;;;2.70;2.10;;;3.10;99.90;;;;;;4996227;28;20206;-73
2024/01/22 08:02:05;;;;;;;5.47;2.10;;;3.10;99.90;;;;;;4998881;28;20177;-74
2024/01/22 08:04:31;;;;;;;3.07;2.10;;;3.10;99.90;;;;;;5000431;28;20244;-81
2024/01/22 08:07:00;;;;;;;2.87;2.57;;;3.10;99.90;;;;;;4998738;28;20198;-73
2024/01/22 08:09:26;;;;;;;3.13;2.27;;;3.10;99.90;;;;;;4994947;28;20176;-74
2024/01/22 08:11:52;;;;;;;2.20;2.03;;;3.10;99.90;;;;;;4994890;28;20207;-74
2024/01/22 08:14:17;;;;;;;3.73;1.93;;;3.10;99.90;;;;;;4996353;28;20643;-73
2024/01/22 08:16:44;;;;;;;4.03;2.40;;;3.10;99.90;;;;;;4995873;28;20239;-75
2024/01/22 08:19:10;;;;;;;5.33;2.40;;;3.10;99.90;;;;;;4996776;28;20196;-76
2024/01/22 08:21:36;;;;;;;4.40;3.50;;;3.20;99.90;;;;;;4994809;28;20176;-73
2024/01/22 08:24:02;;;;;;;4.97;3.00;;;3.20;99.90;;;;;;4995670;28;20266;-75
2024/01/22 08:26:27;;;;;;;4.30;2.80;;;3.30;99.90;;;;;;4997797;28;20204;-75
2024/01/22 08:28:53;;;;;;;3.57;2.37;;;3.30;99.90;;;;;;4999898;28;20239;-75
2024/01/22 08:31:19;;;;;;;4.37;2.27;;;3.30;99.90;;;;;;4999734;28;20211;-76
2024/01/22 08:33:45;;;;;;;3.23;2.40;;;3.30;99.90;;;;;;4998851;28;20188;-76
2024/01/22 08:36:11;;;;;;;4.70;3.40;;;3.40;99.90;;;;;;4999064;28;20203;-75
2024/01/22 08:38:36;;;;;;;5.37;4.00;;;3.40;99.90;;;;;;4999399;28;20208;-75
2024/01/22 08:41:04;;;;;;;7.43;5.57;;;3.50;99.90;;;;;;4999176;28;20207;-74
2024/01/22 08:43:29;;;;;;;6.33;4.53;;;3.40;99.90;;;;;;4994369;28;20176;-74
2024/01/22 08:45:55;;;;;;;5.83;4.30;;;3.50;99.90;;;;;;4995474;28;20196;-75
2024/01/22 08:48:21;;;;;;;7.83;4.60;;;3.60;99.90;;;;;;4997401;28;20208;-75
2024/01/22 08:50:46;;;;;;;8.47;6.07;;;3.60;99.90;;;;;;4996322;28;20223;-75
2024/01/22 08:53:13;;;;;;;5.97;4.67;;;3.70;99.90;;;;;;4996060;28;20180;-74
2024/01/22 08:55:38;;;;;;;3.80;2.77;;;3.70;99.90;;;;;;4994452;28;20208;-74
2024/01/22 08:58:04;;;;;;;3.67;3.00;;;3.80;99.90;;;;;;4998649;28;20204;-75
2024/01/22 09:00:30;;;;;;;3.70;3.07;;;3.90;99.90;;;;;;4994293;28;20164;-74
2024/01/22 09:02:56;;;;;;;7.23;4.40;;;4.00;99.90;;;;;;4993810;28;20180;-74
2024/01/22 09:05:22;;;;;;;4.73;3.07;;;3.90;99.90;;;;;;4994446;28;20179;-73
2024/01/22 09:07:48;;;;;;;5.40;4.40;;;4.10;99.90;;;;;;4993571;28;20207;-74
2024/01/22 09:10:14;;;;;;;4.40;3.80;;;4.10;99.90;;;;;;4993748;28;20184;-74
2024/01/22 09:12:40;;;;;;;4.67;3.10;;;4.10;99.90;;;;;;4995819;28;20180;-74
2024/01/22 09:15:06;;;;;;;4.17;3.00;;;4.20;99.90;;;;;;4996760;28;20209;-76
2024/01/22 09:17:33;;;;;;;3.37;2.33;;;4.20;99.90;;;;;;4997435;28;20212;-75
2024/01/22 09:19:59;;;;;;;4.60;2.73;;;4.30;99.90;;;;;;4994830;28;20214;-74
2024/01/22 09:22:26;;;;;;;4.80;3.40;;;4.30;99.90;;;;;;4993542;28;20180;-74
2024/01/22 09:24:52;;;;;;;6.70;4.87;;;4.30;99.90;;;;;;4996110;28;20276;-75
2024/01/22 09:27:18;;;;;;;4.07;3.10;;;4.20;99.90;;;;;;4997775;28;20192;-76
2024/01/22 09:29:43;;;;;;;5.20;2.77;;;4.20;99.90;;;;;;4994145;28;20276;-74
2024/01/22 09:32:12;;;;;;;4.47;2.67;;;4.10;99.90;;;;;;4993913;28;20211;-74
2024/01/22 09:34:39;;;;;;;3.63;2.70;;;4.00;99.90;;;;;;4997751;28;20200;-75
2024/01/22 09:37:05;;;;;;;4.40;2.30;;;3.90;99.90;;;;;;4997527;28;20208;-75
2024/01/22 09:39:32;;;;;;;2.80;2.50;;;3.90;99.90;;;;;;4996842;28;20208;-74
2024/01/22 09:41:58;;;;;;;2.70;2.50;;;3.90;99.90;;;;;;4993280;28;20180;-74
2024/01/22 09:44:26;;;;;;;6.37;2.80;;;4.00;99.90;;;;;;4996205;28;20580;-76
2024/01/22 09:46:51;;;;;;;2.87;2.40;;;3.90;99.90;;;;;;4996172;28;20258;-75
2024/01/22 09:49:18;;;;;;;3.63;2.20;;;3.90;99.90;;;;;;4996368;28;20550;-74
2024/01/22 09:51:45;;;;;;;2.53;2.27;;;3.90;99.90;;;;;;4992907;28;20303;-74
2024/01/22 09:54:20;;;;;;;7.50;2.40;;;3.90;99.90;;;;;;4993156;28;20180;-74
2024/01/22 09:56:55;;;;;;;3.47;2.30;;;3.90;99.90;;;;;;4992756;28;20231;-74
2024/01/22 09:59:28;;;;;;;3.87;2.30;;;4.00;99.90;;;;;;4993086;28;20210;-74
2024/01/22 10:01:55;;;;;;;9.07;3.57;;;4.10;99.90;;;;;;4992970;28;20256;-74
2024/01/22 10:04:23;;;;;;;4.33;2.80;;;4.10;99.90;;;;;;4992958;28;20288;-74
2024/01/22 10:06:49;;;;;;;4.90;3.03;;;4.10;99.90;;;;;;4992730;28;20231;-74
2024/01/22 10:09:17;;;;;;;3.10;2.60;;;4.00;99.90;;;;;;4993886;28;20207;-74
2024/01/22 10:11:46;;;;;;;3.70;2.53;;;4.10;99.90;;;;;;4992928;28;20650;-74
2024/01/22 10:14:12;;;;;;;4.93;2.90;;;4.20;99.90;;;;;;4993182;28;20234;-73
2024/01/22 10:16:38;;;;;;;4.40;3.07;;;4.20;99.90;;;;;;4992510;28;20215;-74
2024/01/22 10:19:09;;;;;;;4.60;2.77;;;4.20;99.90;;;;;;4996473;28;20204;-75
2024/01/22 10:21:38;;;;;;;3.90;2.80;;;4.20;99.90;;;;;;4995474;28;20239;-76
2024/01/22 10:24:06;;;;;;;3.67;3.30;;;4.40;99.90;;;;;;4996265;28;20176;-76
2024/01/22 10:26:40;;;;;;;5.10;2.80;;;4.40;99.90;;;;;;4994400;28;20235;-75
2024/01/22 10:29:22;;;;;;;6.10;3.10;;;4.40;99.90;;;;;;4996695;28;20180;-75
2024/01/22 10:32:01;;;;;;;3.87;2.40;;;4.40;99.90;;;;;;4994354;28;20177;-76
2024/01/22 10:34:41;;;;;;;3.93;2.77;;;4.40;99.90;;;;;;4995561;28;20184;-76
2024/01/22 10:37:12;;;;;;;5.17;3.00;;;4.30;99.90;;;;;;4996501;28;20286;-76
2024/01/22 10:39:42;;;;;;;6.00;5.40;;;4.30;99.90;;;;;;4996610;28;20279;-76
2024/01/22 10:42:12;;;;;;;3.40;3.10;;;4.30;99.90;;;;;;4994085;28;20168;-76
2024/01/22 10:44:39;;;;;;;4.70;3.07;;;4.40;99.90;;;;;;4995662;28;20525;-76
2024/01/22 10:47:05;;;;;;;4.73;3.23;;;4.40;99.90;;;;;;4994029;28;20204;-75
2024/01/22 10:49:32;;;;;;;4.27;3.83;;;4.30;99.90;;;;;;4994444;28;20632;-74
2024/01/22 10:51:59;;;;;;;5.00;4.53;;;4.40;99.90;;;;;;4995646;28;20234;-74
2024/01/22 10:54:30;;;;;;;7.17;4.27;;;4.30;99.90;;;;;;4996766;28;20192;-75
2024/01/22 10:57:46;;;;;;;5.17;3.57;;;4.40;99.90;;;;;;4998002;28;20207;-74
2024/01/22 11:00:14;;;;;;;5.50;2.80;;;4.40;99.90;;;;;;5001523;28;20227;-75
2024/01/22 11:02:46;;;;;;;4.53;2.83;;;4.60;99.90;;;;;;4999644;28;20184;-75
2024/01/22 11:05:14;;;;;;;3.03;2.50;;;4.60;99.90;;;;;;5000584;28;20173;-75
2024/01/22 11:07:49;;;;;;;2.60;2.23;;;4.70;99.90;;;;;;4997884;28;20200;-76
2024/01/22 11:10:15;;;;;;;3.90;2.73;;;4.70;99.90;;;;;;4998120;28;20186;-76
2024/01/22 11:12:52;;;;;;;2.90;2.50;;;4.70;99.90;;;;;;4998120;28;20191;-76
2024/01/22 11:15:29;;;;;;;5.27;2.40;;;4.70;99.90;;;;;;4998603;28;20183;-76
2024/01/22 11:17:54;;;;;;;3.30;2.47;;;4.70;99.90;;;;;;4998128;28;20227;-76
2024/01/22 11:20:21;;;;;;;4.27;2.27;;;4.70;99.90;;;;;;4998774;28;20176;-76
2024/01/22 11:23:09;;;;;;;5.27;2.90;;;4.70;99.90;;;;;;4998864;28;20187;-76
2024/01/22 11:25:36;;;;;;;5.10;3.57;;;4.80;99.90;;;;;;4999843;28;20164;-76
2024/01/22 11:28:09;;;;;;;6.23;3.13;;;4.70;99.90;;;;;;4999145;28;20215;-75
2024/01/22 11:30:39;;;;;;;6.50;3.03;;;4.70;99.90;;;;;;5000129;28;20274;-76
2024/01/22 11:33:23;;;;;;;5.33;3.50;;;4.80;99.90;;;;;;5000654;28;20187;-76
2024/01/22 11:35:52;;;;;;;2.83;2.63;;;4.90;99.90;;;;;;5000126;28;20180;-75
2024/01/22 11:38:54;;;;;;;4.23;2.63;;;5.00;99.90;;;;;;4999419;28;20211;-75
2024/01/22 11:41:33;;;;;;;2.80;2.60;;;4.90;99.90;;;;;;4999614;28;20172;-76
2024/01/22 11:43:59;;;;;;;3.77;2.60;;;5.00;99.90;;;;;;4999334;28;20550;-76
2024/01/22 11:46:26;;;;;;;4.90;2.60;;;5.00;99.90;;;;;;4998789;28;20207;-74
2024/01/22 11:48:54;;;;;;;2.97;2.67;;;5.00;99.90;;;;;;4995325;28;20559;-74
2024/01/22 11:51:25;;;;;;;4.17;2.73;;;5.10;99.90;;;;;;4996220;28;20176;-74
2024/01/22 11:53:53;;;;;;;3.60;2.40;;;5.10;99.90;;;;;;4996059;28;20184;-74
2024/01/22 11:56:21;;;;;;;4.70;2.83;;;5.10;99.90;;;;;;4995842;28;20235;-75
2024/01/22 11:58:47;;;;;;;3.87;2.87;;;5.10;99.90;;;;;;4998284;28;20239;-75
2024/01/22 12:01:13;;;;;;;3.80;3.30;;;5.00;99.90;;;;;;4997149;28;20181;-76
2024/01/22 12:03:39;;;;;;;3.33;3.00;;;5.10;99.90;;;;;;4997612;28;20246;-75
2024/01/22 12:06:08;;;;;;;5.87;4.53;;;5.10;99.90;;;;;;4999362;28;20180;-74
2024/01/22 12:08:35;;;;;;;4.40;4.00;;;5.10;99.90;;;;;;4995991;28;20268;-74
2024/01/22 12:11:16;;;;;;;5.60;4.37;;;5.00;99.90;;;;;;4995997;28;20184;-74
2024/01/22 12:13:43;;;;;;;5.33;4.23;;;5.10;99.90;;;;;;4996070;28;20176;-76
2024/01/22 12:16:17;;;;;;;5.60;5.10;;;5.00;99.90;;;;;;4997890;28;20196;-75
2024/01/22 12:18:45;;;;;;;5.50;4.90;;;5.00;99.90;;;;;;4997916;28;20665;-75
2024/01/22 12:21:11;;;;;;;5.57;4.50;;;5.00;99.90;;;;;;4998470;28;20176;-75
2024/01/22 12:23:40;;;;;;;5.37;4.87;;;5.00;99.90;;;;;;4998350;28;20192;-75
2024/01/22 12:26:23;;;;;;;4.33;4.03;;;5.00;99.90;;;;;;4998261;28;20663;-75
2024/01/22 12:28:54;;;;;;;4.67;4.03;;;5.00;99.90;;;;;;4998008;28;20172;-75
2024/01/22 12:31:21;;;;;;;3.90;3.60;;;4.90;99.90;;;;;;4999318;28;20165;-75
2024/01/22 12:33:47;;;;;;;12.60;4.00;;;5.00;99.90;;;;;;4998698;28;20195;-75
2024/01/22 12:36:14;;;;;;;4.03;3.73;;;5.10;99.90;;;;;;4999048;28;20687;-76
2024/01/22 12:38:54;;;;;;;3.37;3.17;;;5.10;99.90;;;;;;4998381;28;20680;-76
2024/01/22 12:41:21;;;;;;;3.90;3.60;;;5.20;99.90;;;;;;4995845;28;20187;-74
2024/01/22 12:43:48;;;;;;;2.90;2.70;;;5.20;99.90;;;;;;4994115;28;20239;-74
2024/01/22 12:46:17;;;;;;;2.70;2.50;;;5.30;99.90;;;;;;4994198;28;20197;-74
2024/01/22 12:48:45;;;;;;;2.90;2.70;;;5.30;99.90;;;;;;4994028;28;20275;-74
2024/01/22 12:51:12;;;;;;;2.47;2.10;;;5.30;99.90;;;;;;4994125;28;20188;-74
2024/01/22 12:53:41;;;;;;;3.10;2.80;;;5.30;99.90;;;;;;4993938;28;20180;-74
2024/01/22 12:56:07;;;;;;;8.07;5.00;;;5.30;99.90;;;;;;4993742;28;20267;-74
2024/01/22 12:58:36;;;;;;;3.67;3.37;;;5.30;99.90;;;;;;4994220;28;20632;-74
2024/01/22 13:01:03;;;;;;;6.20;5.67;;;5.40;99.90;;;;;;4994351;28;20207;-74
2024/01/22 13:03:29;;;;;;;5.43;4.27;;;5.40;99.90;;;;;;4995094;28;20169;-74
2024/01/22 13:05:55;;;;;;;3.73;3.43;;;5.40;99.90;;;;;;4993731;28;20180;-74
2024/01/22 13:08:21;;;;;;;3.03;2.73;;;5.30;99.90;;;;;;4993438;28;20212;-74
2024/01/22 13:10:46;;;;;;;5.17;2.83;;;5.30;99.90;;;;;;4993647;28;20187;-74
2024/01/22 13:13:13;;;;;;;3.07;2.73;;;5.20;99.90;;;;;;4994230;28;20186;-74